sensor_id;sensor_type;location;lat;lon;timestamp;P1;durP1;ratioP1;P2;durP2;ratioP2
11348;SDS011;5729;43.570;27.826;2022-12-07T00:01:06;8.90;;;3.30;;
11348;SDS011;5729;43.570;27.826;2022-12-07T00:03:37;7.57;;;3.35;;
11348;SDS011;5729;43.570;27.826;2022-12-07T00:06:05;4.38;;;3.00;;
11348;SDS011;5729;43.570;27.826;2022-12-07T00:08:32;5.23;;;2.80;;
11348;SDS011;5729;43.570;27.826;2022-12-07T00:11:02;5.23;;;2.63;;
11348;SDS011;5729;43.570;27.826;2022-12-07T00:13:31;4.78;;;2.88;;
11348;SDS011;5729;43.570;27.826;2022-12-07T00:16:08;5.05;;;2.47;;
11348;SDS011;5729;43.570;27.826;2022-12-07T00:18:40;3.73;;;2.60;;
11348;SDS011;5729;43.570;27.826;2022-12-07T00:21:08;5.15;;;3.13;;
11348;SDS011;5729;43.570;27.826;2022-12-07T00:23:39;4.27;;;2.47;;
11348;SDS011;5729;43.570;27.826;2022-12-07T00:26:06;3.47;;;2.50;;
11348;SDS011;5729;43.570;27.826;2022-12-07T00:28:34;5.15;;;2.88;;
11348;SDS011;5729;43.570;27.826;2022-12-07T00:31:04;7.30;;;3.20;;
11348;SDS011;5729;43.570;27.826;2022-12-07T00:33:31;5.85;;;3.22;;
11348;SDS011;5729;43.570;27.826;2022-12-07T00:35:57;5.53;;;3.20;;
11348;SDS011;5729;43.570;27.826;2022-12-07T00:38:24;3.90;;;3.00;;
11348;SDS011;5729;43.570;27.826;2022-12-07T00:40:56;6.40;;;3.15;;
11348;SDS011;5729;43.570;27.826;2022-12-07T00:43:23;6.20;;;3.17;;
11348;SDS011;5729;43.570;27.826;2022-12-07T00:45:48;4.53;;;3.33;;
11348;SDS011;5729;43.570;27.826;2022-12-07T00:48:14;4.20;;;3.10;;
11348;SDS011;5729;43.570;27.826;2022-12-07T00:50:39;5.23;;;3.03;;
11348;SDS011;5729;43.570;27.826;2022-12-07T00:53:05;4.95;;;3.20;;
11348;SDS011;5729;43.570;27.826;2022-12-07T00:55:33;4.93;;;3.00;;
11348;SDS011;5729;43.570;27.826;2022-12-07T00:57:59;4.25;;;3.03;;
11348;SDS011;5729;43.570;27.826;2022-12-07T01:00:25;6.45;;;3.75;;
11348;SDS011;5729;43.570;27.826;2022-12-07T01:02:50;5.38;;;3.35;;
11348;SDS011;5729;43.570;27.826;2022-12-07T01:05:15;4.85;;;3.10;;
11348;SDS011;5729;43.570;27.826;2022-12-07T01:07:41;4.28;;;3.20;;
11348;SDS011;5729;43.570;27.826;2022-12-07T01:10:06;5.18;;;2.97;;
11348;SDS011;5729;43.570;27.826;2022-12-07T01:12:32;6.65;;;3.65;;
11348;SDS011;5729;43.570;27.826;2022-12-07T01:14:58;6.10;;;3.70;;
11348;SDS011;5729;43.570;27.826;2022-12-07T01:17:23;5.88;;;3.83;;
11348;SDS011;5729;43.570;27.826;2022-12-07T01:19:49;5.38;;;3.60;;
11348;SDS011;5729;43.570;27.826;2022-12-07T01:22:14;7.63;;;3.60;;
11348;SDS011;5729;43.570;27.826;2022-12-07T01:24:40;6.20;;;4.10;;
11348;SDS011;5729;43.570;27.826;2022-12-07T01:27:05;6.53;;;4.20;;
11348;SDS011;5729;43.570;27.826;2022-12-07T01:29:30;6.72;;;4.63;;
11348;SDS011;5729;43.570;27.826;2022-12-07T01:31:56;6.40;;;4.77;;
11348;SDS011;5729;43.570;27.826;2022-12-07T01:34:21;7.00;;;5.00;;
11348;SDS011;5729;43.570;27.826;2022-12-07T01:36:47;4.88;;;4.18;;
11348;SDS011;5729;43.570;27.826;2022-12-07T01:39:12;9.10;;;5.07;;
11348;SDS011;5729;43.570;27.826;2022-12-07T01:41:38;6.90;;;4.90;;
11348;SDS011;5729;43.570;27.826;2022-12-07T01:44:16;10.10;;;5.47;;
11348;SDS011;5729;43.570;27.826;2022-12-07T01:49:28;6.07;;;5.07;;
11348;SDS011;5729;43.570;27.826;2022-12-07T01:52:05;12.10;;;5.67;;
11348;SDS011;5729;43.570;27.826;2022-12-07T01:54:38;6.82;;;5.35;;
11348;SDS011;5729;43.570;27.826;2022-12-07T01:57:04;6.05;;;5.20;;
11348;SDS011;5729;43.570;27.826;2022-12-07T01:59:31;6.55;;;4.85;;
11348;SDS011;5729;43.570;27.826;2022-12-07T02:01:57;7.32;;;4.93;;
11348;SDS011;5729;43.570;27.826;2022-12-07T02:04:22;7.10;;;5.90;;
11348;SDS011;5729;43.570;27.826;2022-12-07T02:06:49;7.87;;;5.40;;
11348;SDS011;5729;43.570;27.826;2022-12-07T02:09:16;7.63;;;5.35;;
11348;SDS011;5729;43.570;27.826;2022-12-07T02:11:42;6.55;;;5.70;;
11348;SDS011;5729;43.570;27.826;2022-12-07T02:14:07;6.90;;;5.63;;
11348;SDS011;5729;43.570;27.826;2022-12-07T02:29:25;7.82;;;5.78;;
11348;SDS011;5729;43.570;27.826;2022-12-07T02:35:15;8.20;;;6.50;;
11348;SDS011;5729;43.570;27.826;2022-12-07T02:40:19;8.27;;;5.87;;
11348;SDS011;5729;43.570;27.826;2022-12-07T02:42:51;9.73;;;5.90;;
11348;SDS011;5729;43.570;27.826;2022-12-07T02:45:22;10.68;;;6.38;;
11348;SDS011;5729;43.570;27.826;2022-12-07T02:47:53;8.38;;;6.07;;
11348;SDS011;5729;43.570;27.826;2022-12-07T02:50:23;8.15;;;5.40;;
11348;SDS011;5729;43.570;27.826;2022-12-07T02:52:49;7.20;;;5.90;;
11348;SDS011;5729;43.570;27.826;2022-12-07T02:55:15;8.60;;;6.00;;
11348;SDS011;5729;43.570;27.826;2022-12-07T02:57:57;10.23;;;6.40;;
11348;SDS011;5729;43.570;27.826;2022-12-07T03:00:58;11.90;;;6.78;;
11348;SDS011;5729;43.570;27.826;2022-12-07T03:03:37;11.07;;;6.95;;
11348;SDS011;5729;43.570;27.826;2022-12-07T03:06:22;9.13;;;6.18;;
11348;SDS011;5729;43.570;27.826;2022-12-07T03:08:59;9.20;;;7.13;;
11348;SDS011;5729;43.570;27.826;2022-12-07T03:11:33;8.77;;;6.72;;
11348;SDS011;5729;43.570;27.826;2022-12-07T03:17:02;9.35;;;7.00;;
11348;SDS011;5729;43.570;27.826;2022-12-07T03:19:35;9.23;;;7.32;;
11348;SDS011;5729;43.570;27.826;2022-12-07T03:22:03;12.32;;;8.05;;
11348;SDS011;5729;43.570;27.826;2022-12-07T03:24:37;12.80;;;7.32;;
11348;SDS011;5729;43.570;27.826;2022-12-07T03:27:16;14.75;;;8.05;;
11348;SDS011;5729;43.570;27.826;2022-12-07T03:29:48;14.73;;;8.98;;
11348;SDS011;5729;43.570;27.826;2022-12-07T03:32:21;11.65;;;7.75;;
11348;SDS011;5729;43.570;27.826;2022-12-07T03:35:14;14.38;;;8.40;;
11348;SDS011;5729;43.570;27.826;2022-12-07T03:37:52;13.40;;;8.85;;
11348;SDS011;5729;43.570;27.826;2022-12-07T03:40:24;15.98;;;8.65;;
11348;SDS011;5729;43.570;27.826;2022-12-07T03:42:55;13.18;;;9.60;;
11348;SDS011;5729;43.570;27.826;2022-12-07T03:45:26;11.82;;;7.65;;
11348;SDS011;5729;43.570;27.826;2022-12-07T03:53:24;11.82;;;8.77;;
11348;SDS011;5729;43.570;27.826;2022-12-07T03:55:58;13.13;;;9.20;;
11348;SDS011;5729;43.570;27.826;2022-12-07T03:58:24;13.10;;;9.05;;
11348;SDS011;5729;43.570;27.826;2022-12-07T04:00:50;16.00;;;9.90;;
11348;SDS011;5729;43.570;27.826;2022-12-07T04:03:17;19.85;;;10.02;;
11348;SDS011;5729;43.570;27.826;2022-12-07T04:05:42;14.80;;;9.63;;
11348;SDS011;5729;43.570;27.826;2022-12-07T04:08:08;18.65;;;10.18;;
11348;SDS011;5729;43.570;27.826;2022-12-07T04:10:34;18.30;;;10.38;;
11348;SDS011;5729;43.570;27.826;2022-12-07T04:13:00;17.15;;;10.10;;
11348;SDS011;5729;43.570;27.826;2022-12-07T04:15:26;16.13;;;10.10;;
11348;SDS011;5729;43.570;27.826;2022-12-07T04:17:52;15.00;;;10.50;;
11348;SDS011;5729;43.570;27.826;2022-12-07T04:20:19;15.95;;;10.93;;
11348;SDS011;5729;43.570;27.826;2022-12-07T04:22:45;15.52;;;9.50;;
11348;SDS011;5729;43.570;27.826;2022-12-07T04:25:10;15.43;;;10.30;;
11348;SDS011;5729;43.570;27.826;2022-12-07T04:27:36;13.95;;;10.30;;
11348;SDS011;5729;43.570;27.826;2022-12-07T04:30:02;16.17;;;10.20;;
11348;SDS011;5729;43.570;27.826;2022-12-07T04:32:27;14.07;;;10.00;;
11348;SDS011;5729;43.570;27.826;2022-12-07T04:34:53;13.73;;;9.65;;
11348;SDS011;5729;43.570;27.826;2022-12-07T04:37:18;13.30;;;10.13;;
11348;SDS011;5729;43.570;27.826;2022-12-07T04:39:44;12.90;;;9.57;;
11348;SDS011;5729;43.570;27.826;2022-12-07T04:42:12;14.07;;;10.18;;
11348;SDS011;5729;43.570;27.826;2022-12-07T04:44:38;14.30;;;10.45;;
11348;SDS011;5729;43.570;27.826;2022-12-07T04:47:03;17.15;;;11.23;;
11348;SDS011;5729;43.570;27.826;2022-12-07T04:49:29;19.58;;;11.18;;
11348;SDS011;5729;43.570;27.826;2022-12-07T04:51:54;20.10;;;11.00;;
11348;SDS011;5729;43.570;27.826;2022-12-07T04:54:20;16.67;;;11.93;;
11348;SDS011;5729;43.570;27.826;2022-12-07T04:56:46;18.85;;;11.48;;
11348;SDS011;5729;43.570;27.826;2022-12-07T04:59:12;18.17;;;11.77;;
11348;SDS011;5729;43.570;27.826;2022-12-07T05:01:39;19.93;;;13.10;;
11348;SDS011;5729;43.570;27.826;2022-12-07T05:04:06;15.97;;;11.33;;
11348;SDS011;5729;43.570;27.826;2022-12-07T05:06:32;19.90;;;11.97;;
11348;SDS011;5729;43.570;27.826;2022-12-07T05:08:57;19.73;;;12.83;;
11348;SDS011;5729;43.570;27.826;2022-12-07T05:11:23;22.80;;;13.40;;
11348;SDS011;5729;43.570;27.826;2022-12-07T05:14:15;23.77;;;13.98;;
11348;SDS011;5729;43.570;27.826;2022-12-07T05:16:42;20.67;;;13.43;;
11348;SDS011;5729;43.570;27.826;2022-12-07T05:19:09;18.83;;;13.07;;
11348;SDS011;5729;43.570;27.826;2022-12-07T05:21:35;17.07;;;10.90;;
11348;SDS011;5729;43.570;27.826;2022-12-07T05:24:02;17.63;;;11.37;;
11348;SDS011;5729;43.570;27.826;2022-12-07T05:26:28;19.57;;;11.67;;
11348;SDS011;5729;43.570;27.826;2022-12-07T05:28:54;17.17;;;12.43;;
11348;SDS011;5729;43.570;27.826;2022-12-07T05:31:20;22.27;;;12.40;;
11348;SDS011;5729;43.570;27.826;2022-12-07T05:33:46;23.13;;;13.67;;
11348;SDS011;5729;43.570;27.826;2022-12-07T05:36:12;19.80;;;12.87;;
11348;SDS011;5729;43.570;27.826;2022-12-07T05:38:38;19.77;;;13.10;;
11348;SDS011;5729;43.570;27.826;2022-12-07T05:41:04;18.05;;;12.43;;
11348;SDS011;5729;43.570;27.826;2022-12-07T05:43:31;21.00;;;12.60;;
11348;SDS011;5729;43.570;27.826;2022-12-07T05:45:57;19.97;;;13.07;;
11348;SDS011;5729;43.570;27.826;2022-12-07T05:48:23;19.00;;;12.67;;
11348;SDS011;5729;43.570;27.826;2022-12-07T05:50:49;22.13;;;13.07;;
11348;SDS011;5729;43.570;27.826;2022-12-07T05:53:15;23.33;;;13.17;;
11348;SDS011;5729;43.570;27.826;2022-12-07T05:55:40;19.57;;;12.70;;
11348;SDS011;5729;43.570;27.826;2022-12-07T05:58:06;18.05;;;12.98;;
11348;SDS011;5729;43.570;27.826;2022-12-07T06:00:50;21.73;;;13.63;;
11348;SDS011;5729;43.570;27.826;2022-12-07T06:03:15;21.42;;;13.45;;
11348;SDS011;5729;43.570;27.826;2022-12-07T06:05:41;20.13;;;13.18;;
11348;SDS011;5729;43.570;27.826;2022-12-07T06:08:06;18.92;;;13.23;;
11348;SDS011;5729;43.570;27.826;2022-12-07T06:10:32;19.45;;;13.18;;
11348;SDS011;5729;43.570;27.826;2022-12-07T06:12:58;22.08;;;13.68;;
11348;SDS011;5729;43.570;27.826;2022-12-07T06:15:23;20.45;;;14.00;;
11348;SDS011;5729;43.570;27.826;2022-12-07T06:17:49;21.33;;;14.70;;
11348;SDS011;5729;43.570;27.826;2022-12-07T06:20:14;23.00;;;14.55;;
11348;SDS011;5729;43.570;27.826;2022-12-07T06:22:40;22.88;;;13.88;;
11348;SDS011;5729;43.570;27.826;2022-12-07T06:25:05;21.67;;;15.82;;
11348;SDS011;5729;43.570;27.826;2022-12-07T06:27:32;26.20;;;14.60;;
11348;SDS011;5729;43.570;27.826;2022-12-07T06:29:57;20.38;;;14.68;;
11348;SDS011;5729;43.570;27.826;2022-12-07T06:32:23;22.38;;;14.88;;
11348;SDS011;5729;43.570;27.826;2022-12-07T06:34:49;23.73;;;14.95;;
11348;SDS011;5729;43.570;27.826;2022-12-07T06:37:14;20.02;;;14.32;;
11348;SDS011;5729;43.570;27.826;2022-12-07T06:39:40;25.20;;;14.85;;
11348;SDS011;5729;43.570;27.826;2022-12-07T06:42:05;22.60;;;14.02;;
11348;SDS011;5729;43.570;27.826;2022-12-07T06:44:31;20.20;;;14.80;;
11348;SDS011;5729;43.570;27.826;2022-12-07T06:46:56;25.20;;;15.38;;
11348;SDS011;5729;43.570;27.826;2022-12-07T06:49:22;22.60;;;14.20;;
11348;SDS011;5729;43.570;27.826;2022-12-07T06:51:47;20.63;;;15.05;;
11348;SDS011;5729;43.570;27.826;2022-12-07T06:54:13;21.92;;;14.20;;
11348;SDS011;5729;43.570;27.826;2022-12-07T06:56:39;20.45;;;13.48;;
11348;SDS011;5729;43.570;27.826;2022-12-07T06:59:05;20.45;;;13.20;;
11348;SDS011;5729;43.570;27.826;2022-12-07T07:01:33;26.17;;;15.20;;
11348;SDS011;5729;43.570;27.826;2022-12-07T07:03:59;22.58;;;14.60;;
11348;SDS011;5729;43.570;27.826;2022-12-07T07:06:26;30.88;;;21.90;;
11348;SDS011;5729;43.570;27.826;2022-12-07T07:08:51;23.52;;;15.68;;
11348;SDS011;5729;43.570;27.826;2022-12-07T07:11:17;21.80;;;14.27;;
11348;SDS011;5729;43.570;27.826;2022-12-07T07:13:43;20.30;;;13.30;;
11348;SDS011;5729;43.570;27.826;2022-12-07T07:16:09;18.80;;;12.90;;
11348;SDS011;5729;43.570;27.826;2022-12-07T07:18:35;21.83;;;14.60;;
11348;SDS011;5729;43.570;27.826;2022-12-07T07:21:01;18.70;;;12.90;;
11348;SDS011;5729;43.570;27.826;2022-12-07T07:23:26;19.48;;;12.90;;
11348;SDS011;5729;43.570;27.826;2022-12-07T07:25:52;20.35;;;13.05;;
11348;SDS011;5729;43.570;27.826;2022-12-07T07:28:17;20.00;;;12.35;;
11348;SDS011;5729;43.570;27.826;2022-12-07T07:30:43;20.83;;;12.05;;
11348;SDS011;5729;43.570;27.826;2022-12-07T07:33:09;17.83;;;12.10;;
11348;SDS011;5729;43.570;27.826;2022-12-07T07:35:35;19.02;;;12.55;;
11348;SDS011;5729;43.570;27.826;2022-12-07T07:38:01;19.88;;;11.88;;
11348;SDS011;5729;43.570;27.826;2022-12-07T07:40:27;18.60;;;11.52;;
11348;SDS011;5729;43.570;27.826;2022-12-07T07:42:56;17.70;;;11.75;;
11348;SDS011;5729;43.570;27.826;2022-12-07T07:45:22;20.20;;;12.68;;
11348;SDS011;5729;43.570;27.826;2022-12-07T07:47:49;18.42;;;11.55;;
11348;SDS011;5729;43.570;27.826;2022-12-07T07:50:15;23.25;;;12.90;;
11348;SDS011;5729;43.570;27.826;2022-12-07T07:52:41;16.27;;;10.18;;
11348;SDS011;5729;43.570;27.826;2022-12-07T07:55:07;15.23;;;10.32;;
11348;SDS011;5729;43.570;27.826;2022-12-07T07:57:34;13.05;;;9.52;;
11348;SDS011;5729;43.570;27.826;2022-12-07T08:00:04;14.82;;;10.18;;
11348;SDS011;5729;43.570;27.826;2022-12-07T08:02:30;21.23;;;10.52;;
11348;SDS011;5729;43.570;27.826;2022-12-07T08:04:56;14.73;;;10.38;;
11348;SDS011;5729;43.570;27.826;2022-12-07T08:07:21;16.80;;;11.07;;
11348;SDS011;5729;43.570;27.826;2022-12-07T08:09:47;15.68;;;10.52;;
11348;SDS011;5729;43.570;27.826;2022-12-07T08:12:12;14.25;;;9.60;;
11348;SDS011;5729;43.570;27.826;2022-12-07T08:14:38;16.20;;;10.32;;
11348;SDS011;5729;43.570;27.826;2022-12-07T08:17:03;16.80;;;9.73;;
11348;SDS011;5729;43.570;27.826;2022-12-07T08:19:29;14.77;;;9.38;;
11348;SDS011;5729;43.570;27.826;2022-12-07T08:21:55;15.38;;;9.43;;
11348;SDS011;5729;43.570;27.826;2022-12-07T08:24:21;21.85;;;15.70;;
11348;SDS011;5729;43.570;27.826;2022-12-07T08:26:46;10.82;;;8.57;;
11348;SDS011;5729;43.570;27.826;2022-12-07T08:29:12;12.00;;;9.05;;
11348;SDS011;5729;43.570;27.826;2022-12-07T08:31:37;15.63;;;9.13;;
11348;SDS011;5729;43.570;27.826;2022-12-07T08:34:03;14.73;;;8.98;;
11348;SDS011;5729;43.570;27.826;2022-12-07T08:36:28;16.15;;;10.05;;
11348;SDS011;5729;43.570;27.826;2022-12-07T08:38:54;15.15;;;9.43;;
11348;SDS011;5729;43.570;27.826;2022-12-07T08:41:19;14.48;;;10.35;;
11348;SDS011;5729;43.570;27.826;2022-12-07T08:43:45;14.18;;;9.70;;
11348;SDS011;5729;43.570;27.826;2022-12-07T08:48:37;17.17;;;9.98;;
11348;SDS011;5729;43.570;27.826;2022-12-07T08:51:10;15.85;;;10.13;;
11348;SDS011;5729;43.570;27.826;2022-12-07T08:53:37;26.40;;;12.98;;
11348;SDS011;5729;43.570;27.826;2022-12-07T08:56:03;21.60;;;10.10;;
11348;SDS011;5729;43.570;27.826;2022-12-07T08:58:31;18.88;;;11.50;;
11348;SDS011;5729;43.570;27.826;2022-12-07T09:00:57;18.17;;;10.50;;
11348;SDS011;5729;43.570;27.826;2022-12-07T09:03:23;18.30;;;11.68;;
11348;SDS011;5729;43.570;27.826;2022-12-07T09:05:48;63.30;;;39.90;;
11348;SDS011;5729;43.570;27.826;2022-12-07T09:08:14;34.08;;;19.58;;
11348;SDS011;5729;43.570;27.826;2022-12-07T09:10:40;39.92;;;25.85;;
11348;SDS011;5729;43.570;27.826;2022-12-07T09:13:05;23.02;;;15.30;;
11348;SDS011;5729;43.570;27.826;2022-12-07T09:15:31;29.85;;;18.95;;
11348;SDS011;5729;43.570;27.826;2022-12-07T09:17:56;32.60;;;20.52;;
11348;SDS011;5729;43.570;27.826;2022-12-07T09:20:22;26.85;;;19.63;;
11348;SDS011;5729;43.570;27.826;2022-12-07T09:22:48;28.60;;;17.67;;
11348;SDS011;5729;43.570;27.826;2022-12-07T09:25:13;32.63;;;16.25;;
11348;SDS011;5729;43.570;27.826;2022-12-07T09:27:39;23.38;;;15.80;;
11348;SDS011;5729;43.570;27.826;2022-12-07T09:30:05;28.00;;;14.25;;
11348;SDS011;5729;43.570;27.826;2022-12-07T09:32:31;20.88;;;13.55;;
11348;SDS011;5729;43.570;27.826;2022-12-07T09:34:57;27.02;;;16.90;;
11348;SDS011;5729;43.570;27.826;2022-12-07T09:37:22;23.05;;;14.20;;
11348;SDS011;5729;43.570;27.826;2022-12-07T09:39:48;19.83;;;14.05;;
11348;SDS011;5729;43.570;27.826;2022-12-07T09:42:35;18.48;;;13.50;;
11348;SDS011;5729;43.570;27.826;2022-12-07T09:45:07;29.13;;;18.08;;
11348;SDS011;5729;43.570;27.826;2022-12-07T09:47:37;19.50;;;11.20;;
11348;SDS011;5729;43.570;27.826;2022-12-07T09:50:04;18.35;;;11.13;;
11348;SDS011;5729;43.570;27.826;2022-12-07T09:52:32;17.33;;;11.10;;
11348;SDS011;5729;43.570;27.826;2022-12-07T09:54:58;21.67;;;13.55;;
11348;SDS011;5729;43.570;27.826;2022-12-07T09:57:30;50.58;;;31.75;;
11348;SDS011;5729;43.570;27.826;2022-12-07T10:00:01;19.92;;;11.95;;
11348;SDS011;5729;43.570;27.826;2022-12-07T10:02:36;18.50;;;10.73;;
11348;SDS011;5729;43.570;27.826;2022-12-07T10:05:05;19.35;;;13.68;;
11348;SDS011;5729;43.570;27.826;2022-12-07T10:07:35;21.60;;;11.80;;
11348;SDS011;5729;43.570;27.826;2022-12-07T10:10:04;25.75;;;17.83;;
11348;SDS011;5729;43.570;27.826;2022-12-07T10:13:00;19.92;;;9.93;;
11348;SDS011;5729;43.570;27.826;2022-12-07T10:18:34;19.05;;;8.65;;
11348;SDS011;5729;43.570;27.826;2022-12-07T10:23:28;34.80;;;9.73;;
11348;SDS011;5729;43.570;27.826;2022-12-07T10:25:53;17.45;;;8.27;;
11348;SDS011;5729;43.570;27.826;2022-12-07T10:28:20;15.57;;;9.20;;
11348;SDS011;5729;43.570;27.826;2022-12-07T10:35:55;25.95;;;9.52;;
11348;SDS011;5729;43.570;27.826;2022-12-07T10:38:26;14.73;;;8.98;;
11348;SDS011;5729;43.570;27.826;2022-12-07T10:41:02;20.25;;;10.60;;
11348;SDS011;5729;43.570;27.826;2022-12-07T10:43:31;15.10;;;9.57;;
11348;SDS011;5729;43.570;27.826;2022-12-07T10:46:07;18.65;;;9.57;;
11348;SDS011;5729;43.570;27.826;2022-12-07T10:48:47;17.63;;;8.85;;
11348;SDS011;5729;43.570;27.826;2022-12-07T10:57:01;13.70;;;8.20;;
11348;SDS011;5729;43.570;27.826;2022-12-07T11:11:12;16.95;;;10.55;;
11348;SDS011;5729;43.570;27.826;2022-12-07T11:16:30;13.85;;;8.57;;
11348;SDS011;5729;43.570;27.826;2022-12-07T11:21:56;16.88;;;9.05;;
11348;SDS011;5729;43.570;27.826;2022-12-07T11:24:49;20.38;;;9.85;;
11348;SDS011;5729;43.570;27.826;2022-12-07T11:36:51;20.90;;;9.40;;
11348;SDS011;5729;43.570;27.826;2022-12-07T11:41:55;21.38;;;10.40;;
11348;SDS011;5729;43.570;27.826;2022-12-07T11:44:47;20.58;;;10.65;;
11348;SDS011;5729;43.570;27.826;2022-12-07T11:47:22;15.63;;;9.18;;
11348;SDS011;5729;43.570;27.826;2022-12-07T11:50:01;20.38;;;10.05;;
11348;SDS011;5729;43.570;27.826;2022-12-07T11:52:48;24.05;;;9.68;;
11348;SDS011;5729;43.570;27.826;2022-12-07T11:55:25;15.20;;;8.68;;
11348;SDS011;5729;43.570;27.826;2022-12-07T11:58:03;23.40;;;10.55;;
11348;SDS011;5729;43.570;27.826;2022-12-07T12:00:35;21.60;;;9.45;;
11348;SDS011;5729;43.570;27.826;2022-12-07T12:03:12;18.48;;;9.27;;
11348;SDS011;5729;43.570;27.826;2022-12-07T12:05:44;19.88;;;10.63;;
11348;SDS011;5729;43.570;27.826;2022-12-07T12:08:17;19.95;;;12.18;;
11348;SDS011;5729;43.570;27.826;2022-12-07T12:10:55;27.65;;;9.65;;
11348;SDS011;5729;43.570;27.826;2022-12-07T12:22:38;17.95;;;11.43;;
11348;SDS011;5729;43.570;27.826;2022-12-07T12:25:15;21.15;;;10.55;;
11348;SDS011;5729;43.570;27.826;2022-12-07T12:27:48;19.02;;;11.38;;
11348;SDS011;5729;43.570;27.826;2022-12-07T12:33:14;18.33;;;10.82;;
11348;SDS011;5729;43.570;27.826;2022-12-07T12:45:02;23.08;;;10.50;;
11348;SDS011;5729;43.570;27.826;2022-12-07T12:46:57;26.20;;;10.93;;
11348;SDS011;5729;43.570;27.826;2022-12-07T12:51:58;33.88;;;19.60;;
11348;SDS011;5729;43.570;27.826;2022-12-07T12:54:29;23.25;;;11.00;;
11348;SDS011;5729;43.570;27.826;2022-12-07T12:57:03;29.40;;;15.32;;
11348;SDS011;5729;43.570;27.826;2022-12-07T13:02:37;24.27;;;11.13;;
11348;SDS011;5729;43.570;27.826;2022-12-07T13:05:21;24.05;;;12.93;;
11348;SDS011;5729;43.570;27.826;2022-12-07T13:07:55;23.27;;;12.02;;
11348;SDS011;5729;43.570;27.826;2022-12-07T13:10:32;26.65;;;13.55;;
11348;SDS011;5729;43.570;27.826;2022-12-07T13:15:51;26.98;;;14.88;;
11348;SDS011;5729;43.570;27.826;2022-12-07T13:18:39;31.42;;;19.65;;
11348;SDS011;5729;43.570;27.826;2022-12-07T13:26:15;32.55;;;14.75;;
11348;SDS011;5729;43.570;27.826;2022-12-07T13:28:45;34.65;;;16.60;;
11348;SDS011;5729;43.570;27.826;2022-12-07T13:31:44;22.45;;;12.57;;
11348;SDS011;5729;43.570;27.826;2022-12-07T13:36:55;30.52;;;21.30;;
11348;SDS011;5729;43.570;27.826;2022-12-07T13:39:22;23.27;;;12.68;;
11348;SDS011;5729;43.570;27.826;2022-12-07T13:41:56;29.33;;;13.45;;
11348;SDS011;5729;43.570;27.826;2022-12-07T13:44:33;21.05;;;13.32;;
11348;SDS011;5729;43.570;27.826;2022-12-07T13:50:20;29.58;;;13.23;;
11348;SDS011;5729;43.570;27.826;2022-12-07T13:52:56;30.05;;;11.80;;
11348;SDS011;5729;43.570;27.826;2022-12-07T13:55:23;26.77;;;12.60;;
11348;SDS011;5729;43.570;27.826;2022-12-07T13:57:49;29.13;;;12.68;;
11348;SDS011;5729;43.570;27.826;2022-12-07T14:00:18;31.17;;;14.25;;
11348;SDS011;5729;43.570;27.826;2022-12-07T14:02:55;30.35;;;13.82;;
11348;SDS011;5729;43.570;27.826;2022-12-07T14:05:27;20.67;;;12.90;;
11348;SDS011;5729;43.570;27.826;2022-12-07T14:15:51;34.67;;;14.07;;
11348;SDS011;5729;43.570;27.826;2022-12-07T14:18:24;20.77;;;13.73;;
11348;SDS011;5729;43.570;27.826;2022-12-07T14:26:48;47.28;;;23.30;;
11348;SDS011;5729;43.570;27.826;2022-12-07T14:29:49;37.00;;;19.90;;
11348;SDS011;5729;43.570;27.826;2022-12-07T14:32:26;35.63;;;21.02;;
11348;SDS011;5729;43.570;27.826;2022-12-07T14:37:29;33.13;;;19.05;;
11348;SDS011;5729;43.570;27.826;2022-12-07T14:39:55;27.00;;;18.17;;
11348;SDS011;5729;43.570;27.826;2022-12-07T14:42:21;33.22;;;18.30;;
11348;SDS011;5729;43.570;27.826;2022-12-07T14:44:50;35.25;;;20.50;;
11348;SDS011;5729;43.570;27.826;2022-12-07T14:47:15;32.95;;;20.33;;
11348;SDS011;5729;43.570;27.826;2022-12-07T14:49:41;36.05;;;19.52;;
11348;SDS011;5729;43.570;27.826;2022-12-07T14:52:09;31.38;;;19.85;;
11348;SDS011;5729;43.570;27.826;2022-12-07T14:54:40;34.60;;;19.15;;
11348;SDS011;5729;43.570;27.826;2022-12-07T14:57:07;34.65;;;21.33;;
11348;SDS011;5729;43.570;27.826;2022-12-07T14:59:34;48.67;;;20.98;;
11348;SDS011;5729;43.570;27.826;2022-12-07T15:01:59;45.33;;;22.63;;
11348;SDS011;5729;43.570;27.826;2022-12-07T15:04:25;44.60;;;22.33;;
11348;SDS011;5729;43.570;27.826;2022-12-07T15:07:01;50.70;;;23.48;;
11348;SDS011;5729;43.570;27.826;2022-12-07T15:09:28;38.03;;;21.45;;
11348;SDS011;5729;43.570;27.826;2022-12-07T15:11:54;40.88;;;21.23;;
11348;SDS011;5729;43.570;27.826;2022-12-07T15:14:19;36.90;;;21.95;;
11348;SDS011;5729;43.570;27.826;2022-12-07T15:16:45;41.22;;;23.80;;
11348;SDS011;5729;43.570;27.826;2022-12-07T15:19:14;48.65;;;28.30;;
11348;SDS011;5729;43.570;27.826;2022-12-07T15:21:41;51.45;;;31.42;;
11348;SDS011;5729;43.570;27.826;2022-12-07T15:24:08;50.70;;;32.92;;
11348;SDS011;5729;43.570;27.826;2022-12-07T15:26:38;54.78;;;32.67;;
11348;SDS011;5729;43.570;27.826;2022-12-07T15:29:04;48.42;;;29.05;;
11348;SDS011;5729;43.570;27.826;2022-12-07T15:31:31;48.20;;;25.25;;
11348;SDS011;5729;43.570;27.826;2022-12-07T15:33:57;56.90;;;30.27;;
11348;SDS011;5729;43.570;27.826;2022-12-07T15:36:24;44.08;;;26.40;;
11348;SDS011;5729;43.570;27.826;2022-12-07T15:38:51;43.53;;;22.88;;
11348;SDS011;5729;43.570;27.826;2022-12-07T15:41:17;57.72;;;23.85;;
11348;SDS011;5729;43.570;27.826;2022-12-07T15:43:43;42.97;;;23.77;;
11348;SDS011;5729;43.570;27.826;2022-12-07T15:46:31;39.60;;;23.00;;
11348;SDS011;5729;43.570;27.826;2022-12-07T15:48:58;44.67;;;24.98;;
11348;SDS011;5729;43.570;27.826;2022-12-07T15:51:23;49.63;;;27.15;;
11348;SDS011;5729;43.570;27.826;2022-12-07T15:53:49;47.60;;;26.10;;
11348;SDS011;5729;43.570;27.826;2022-12-07T15:56:14;52.53;;;28.95;;
11348;SDS011;5729;43.570;27.826;2022-12-07T15:58:40;42.33;;;26.15;;
11348;SDS011;5729;43.570;27.826;2022-12-07T16:01:12;52.72;;;30.10;;
11348;SDS011;5729;43.570;27.826;2022-12-07T16:03:38;59.67;;;32.80;;
11348;SDS011;5729;43.570;27.826;2022-12-07T16:06:04;51.13;;;32.60;;
11348;SDS011;5729;43.570;27.826;2022-12-07T16:08:29;63.90;;;35.45;;
11348;SDS011;5729;43.570;27.826;2022-12-07T16:10:55;58.40;;;30.90;;
11348;SDS011;5729;43.570;27.826;2022-12-07T16:13:20;93.05;;;46.42;;
11348;SDS011;5729;43.570;27.826;2022-12-07T16:15:46;82.38;;;42.60;;
11348;SDS011;5729;43.570;27.826;2022-12-07T16:18:11;101.65;;;55.15;;
11348;SDS011;5729;43.570;27.826;2022-12-07T16:20:37;119.90;;;60.00;;
11348;SDS011;5729;43.570;27.826;2022-12-07T16:23:03;104.47;;;56.47;;
11348;SDS011;5729;43.570;27.826;2022-12-07T16:25:28;113.57;;;60.75;;
11348;SDS011;5729;43.570;27.826;2022-12-07T16:27:54;143.63;;;78.07;;
11348;SDS011;5729;43.570;27.826;2022-12-07T16:30:20;148.65;;;77.68;;
11348;SDS011;5729;43.570;27.826;2022-12-07T16:32:45;128.48;;;75.43;;
11348;SDS011;5729;43.570;27.826;2022-12-07T16:35:11;122.10;;;65.97;;
11348;SDS011;5729;43.570;27.826;2022-12-07T16:37:38;115.20;;;65.55;;
11348;SDS011;5729;43.570;27.826;2022-12-07T16:40:04;114.22;;;61.17;;
11348;SDS011;5729;43.570;27.826;2022-12-07T16:42:33;105.05;;;56.65;;
11348;SDS011;5729;43.570;27.826;2022-12-07T16:45:00;92.28;;;50.47;;
11348;SDS011;5729;43.570;27.826;2022-12-07T16:47:26;80.10;;;48.00;;
11348;SDS011;5729;43.570;27.826;2022-12-07T16:49:52;82.07;;;52.45;;
11348;SDS011;5729;43.570;27.826;2022-12-07T16:52:18;72.70;;;42.53;;